Tiger — 9HA2271 — position and weather

sailwx.info

Track history (hours):
 
Tides and Currents Weather Stations Pressure Air Temp Water Temp Dewpoint Dewpoint Depression Visibility Wind Speed Wind Dir Waves Ship Positions

Tiger

Last reported at 2017-Feb-14 16:28 UTC. Time now 2017-Feb-19 18:45 UTC.
Position S 33°13' E 152°16'.

Length 231 m; draft 9 m.

Type: Cargo ship. MMSI: 248223000.

Date/timePositionNaut miles runAvg speedWind from/ knotsBaromVisibWave heightAir tempDewpointWater temp
2017-Feb-14 16:28S 33°13' E 152°16'1314.3
2017-Feb-14 15:33S 33°03' E 152°25'1414.1
2017-Feb-14 14:33S 32°51' E 152°35'1413.9
2017-Feb-14 13:33S 32°40' E 152°45'28217.1
2017-Feb-13 21:06S 28°04' E 153°49'1119.5
2017-Feb-13 20:33S 27°53' E 153°47'1919.1
2017-Feb-13 19:33S 27°35' E 153°44'2518.5
2017-Feb-13 18:11S 27°09' E 153°39'1418.3
2017-Feb-13 17:24S 26°57' E 153°32'2118.4
2017-Feb-13 16:14S 26°43' E 153°14'5 7.7
2017-Feb-13 15:33S 26°48' E 153°11'1616.0
2017-Feb-13 14:33S 27°03' E 153°16'1413.6
2017-Feb-13 13:33S 27°16' E 153°16'8 8.1
2017-Feb-13 12:32S 27°23' E 153°10'0 0.0
2017-Feb-13 08:05S 27°23' E 153°10'0 0.0
2017-Feb-13 07:29S 27°23' E 153°10'0 0.0
2017-Feb-13 06:32S 27°23' E 153°10'0 0.0
2017-Feb-13 05:32S 27°23' E 153°10'0 0.0
2017-Feb-13 04:32S 27°23' E 153°10'0 0.0
2017-Feb-13 03:32S 27°23' E 153°10'0 0.0
2017-Feb-13 02:32S 27°23' E 153°10'0 0.0
2017-Feb-13 01:32S 27°23' E 153°10'0 0.0
2017-Feb-13 00:32S 27°23' E 153°10'0 0.0
2017-Feb-12 23:32S 27°23' E 153°10'0 0.0
2017-Feb-12 22:32S 27°23' E 153°10'0 0.0
2017-Feb-12 21:32S 27°23' E 153°10'0 0.0
2017-Feb-12 20:32S 27°23' E 153°10'0 0.0
2017-Feb-12 19:33S 27°23' E 153°10'6 6.2
2017-Feb-12 18:34S 27°17' E 153°14'1413.9
2017-Feb-12 17:33S 27°04' E 153°18'1616.0
2017-Feb-12 16:33S 26°50' E 153°09'9 9.1
2017-Feb-12 15:33S 26°43' E 153°15'1111.5
2017-Feb-12 14:33S 26°43' E 153°27'1212.0
2017-Feb-12 13:34S 26°48' E 153°39'1312.6
2017-Feb-12 12:34S 26°53' E 153°52'1212.2
2017-Feb-12 11:34S 26°59' E 154°05'1414.2
2017-Feb-12 10:33S 27°04' E 154°19'1515.0
2017-Feb-12 09:33S 27°10' E 154°35'1615.1
2017-Feb-12 08:30S 27°17' E 154°51'1515.3
2017-Feb-12 07:33S 27°23' E 155°06'6315.7
2017-Feb-12 03:33S 27°48' E 156°11'4916.2
2017-Feb-12 00:34S 28°08' E 157°01'1615.9
2017-Feb-11 23:33S 28°14' E 157°18'  
2017-Feb-09 09:33S 36°18' E 174°57'10 9.6
2017-Feb-09 08:33S 36°27' E 174°60'10 9.5
2017-Feb-09 07:33S 36°36' E 174°58'10 9.8
2017-Feb-09 06:33S 36°44' E 174°51'7 6.9
2017-Feb-09 05:33S 36°50' E 174°46'0 0.0
2017-Feb-09 04:29S 36°50' E 174°46'0 0.0
2017-Feb-09 03:29S 36°50' E 174°46'0 0.0
2017-Feb-09 02:23S 36°50' E 174°46'0 0.0
2017-Feb-09 01:29S 36°50' E 174°46'0 0.0
2017-Feb-09 00:17S 36°50' E 174°46'0 0.0
2017-Feb-08 23:23S 36°50' E 174°46'0 0.0
2017-Feb-08 22:29S 36°50' E 174°46'0 0.0
2017-Feb-08 21:23S 36°50' E 174°46'0 0.0
2017-Feb-08 20:29S 36°50' E 174°46'0 0.0
2017-Feb-08 19:29S 36°50' E 174°46'0 0.0
2017-Feb-08 18:29S 36°50' E 174°46'0 0.0
2017-Feb-08 17:23S 36°50' E 174°46'0 0.0
2017-Feb-08 16:29S 36°50' E 174°46'3 3.5
2017-Feb-08 15:33S 36°49' E 174°50'8 7.5
2017-Feb-08 14:33S 36°42' E 174°53'9 8.6
2017-Feb-08 13:33S 36°35' E 175°00'9 8.8
2017-Feb-08 12:33S 36°29' E 175°08'9 8.8
2017-Feb-08 11:33S 36°23' E 175°15'  
Track history (hours):
 
Tides and Currents Weather Stations Pressure Air Temp Water Temp Dewpoint Dewpoint Depression Visibility Wind Speed Wind Dir Waves Ship Positions

Tiger

Last reported at 2017-Feb-14 16:28 UTC. Time now 2017-Feb-19 18:45 UTC.
Position S 33°13' E 152°16'.

Length 231 m; draft 9 m.

Type: Cargo ship. MMSI: 248223000.

Date/timePositionNaut miles runAvg speedWind from/ knotsBaromVisibWave heightAir tempDewpointWater temp
2017-Feb-14 16:28S 33°13' E 152°16'1314.3
2017-Feb-14 15:33S 33°03' E 152°25'1414.1
2017-Feb-14 14:33S 32°51' E 152°35'1413.9
2017-Feb-14 13:33S 32°40' E 152°45'28217.1
2017-Feb-13 21:06S 28°04' E 153°49'1119.5
2017-Feb-13 20:33S 27°53' E 153°47'1919.1
2017-Feb-13 19:33S 27°35' E 153°44'2518.5
2017-Feb-13 18:11S 27°09' E 153°39'1418.3
2017-Feb-13 17:24S 26°57' E 153°32'2118.4
2017-Feb-13 16:14S 26°43' E 153°14'5 7.7
2017-Feb-13 15:33S 26°48' E 153°11'1616.0
2017-Feb-13 14:33S 27°03' E 153°16'1413.6
2017-Feb-13 13:33S 27°16' E 153°16'8 8.1
2017-Feb-13 12:32S 27°23' E 153°10'0 0.0
2017-Feb-13 08:05S 27°23' E 153°10'0 0.0
2017-Feb-13 07:29S 27°23' E 153°10'0 0.0
2017-Feb-13 06:32S 27°23' E 153°10'0 0.0
2017-Feb-13 05:32S 27°23' E 153°10'0 0.0
2017-Feb-13 04:32S 27°23' E 153°10'0 0.0
2017-Feb-13 03:32S 27°23' E 153°10'0 0.0
2017-Feb-13 02:32S 27°23' E 153°10'0 0.0
2017-Feb-13 01:32S 27°23' E 153°10'0 0.0
2017-Feb-13 00:32S 27°23' E 153°10'0 0.0
2017-Feb-12 23:32S 27°23' E 153°10'0 0.0
2017-Feb-12 22:32S 27°23' E 153°10'0 0.0
2017-Feb-12 21:32S 27°23' E 153°10'0 0.0
2017-Feb-12 20:32S 27°23' E 153°10'0 0.0
2017-Feb-12 19:33S 27°23' E 153°10'6 6.2
2017-Feb-12 18:34S 27°17' E 153°14'1413.9
2017-Feb-12 17:33S 27°04' E 153°18'1616.0
2017-Feb-12 16:33S 26°50' E 153°09'9 9.1
2017-Feb-12 15:33S 26°43' E 153°15'1111.5
2017-Feb-12 14:33S 26°43' E 153°27'1212.0
2017-Feb-12 13:34S 26°48' E 153°39'1312.6
2017-Feb-12 12:34S 26°53' E 153°52'1212.2
2017-Feb-12 11:34S 26°59' E 154°05'1414.2
2017-Feb-12 10:33S 27°04' E 154°19'1515.0
2017-Feb-12 09:33S 27°10' E 154°35'1615.1
2017-Feb-12 08:30S 27°17' E 154°51'1515.3
2017-Feb-12 07:33S 27°23' E 155°06'6315.7
2017-Feb-12 03:33S 27°48' E 156°11'4916.2
2017-Feb-12 00:34S 28°08' E 157°01'1615.9
2017-Feb-11 23:33S 28°14' E 157°18'  
2017-Feb-09 09:33S 36°18' E 174°57'10 9.6
2017-Feb-09 08:33S 36°27' E 174°60'10 9.5
2017-Feb-09 07:33S 36°36' E 174°58'10 9.8
2017-Feb-09 06:33S 36°44' E 174°51'7 6.9
2017-Feb-09 05:33S 36°50' E 174°46'0 0.0
2017-Feb-09 04:29S 36°50' E 174°46'0 0.0
2017-Feb-09 03:29S 36°50' E 174°46'0 0.0
2017-Feb-09 02:23S 36°50' E 174°46'0 0.0
2017-Feb-09 01:29S 36°50' E 174°46'0 0.0
2017-Feb-09 00:17S 36°50' E 174°46'0 0.0
2017-Feb-08 23:23S 36°50' E 174°46'0 0.0
2017-Feb-08 22:29S 36°50' E 174°46'0 0.0
2017-Feb-08 21:23S 36°50' E 174°46'0 0.0
2017-Feb-08 20:29S 36°50' E 174°46'0 0.0
2017-Feb-08 19:29S 36°50' E 174°46'0 0.0
2017-Feb-08 18:29S 36°50' E 174°46'0 0.0
2017-Feb-08 17:23S 36°50' E 174°46'0 0.0
2017-Feb-08 16:29S 36°50' E 174°46'3 3.5
2017-Feb-08 15:33S 36°49' E 174°50'8 7.5
2017-Feb-08 14:33S 36°42' E 174°53'9 8.6
2017-Feb-08 13:33S 36°35' E 175°00'9 8.8
2017-Feb-08 12:33S 36°29' E 175°08'9 8.8
2017-Feb-08 11:33S 36°23' E 175°15'  

Dump ship's entire track history